createdAt,value
2023-02-28T00:01:57.832Z,-1.40
2023-02-28T00:04:26.253Z,-1.40
2023-02-28T00:06:54.668Z,-1.50
2023-02-28T00:09:23.153Z,-1.50
2023-02-28T00:11:51.537Z,-1.60
2023-02-28T00:14:19.971Z,-1.60
2023-02-28T00:16:49.673Z,-1.60
2023-02-28T00:19:18.235Z,-1.60
2023-02-28T00:21:46.813Z,-1.60
2023-02-28T00:24:15.331Z,-1.50
2023-02-28T00:26:43.778Z,-1.50
2023-02-28T00:29:12.541Z,-1.50
2023-02-28T00:31:40.976Z,-1.60
2023-02-28T00:34:10.873Z,-1.60
2023-02-28T00:36:39.436Z,-1.60
2023-02-28T00:39:08.192Z,-1.60
2023-02-28T00:41:36.593Z,-1.60
2023-02-28T00:44:05.240Z,-1.70
2023-02-28T00:46:34.386Z,-1.70
2023-02-28T00:49:03.153Z,-1.70
2023-02-28T00:51:33.008Z,-1.70
2023-02-28T00:54:01.661Z,-1.70
2023-02-28T00:56:30.245Z,-1.70
2023-02-28T00:58:58.767Z,-1.70
2023-02-28T01:01:27.527Z,-1.60
2023-02-28T01:03:56.104Z,-1.60
2023-02-28T01:06:24.888Z,-1.60
2023-02-28T01:08:55.332Z,-1.60
2023-02-28T01:11:25.203Z,-1.60
2023-02-28T01:13:55.205Z,-1.60
2023-02-28T01:16:25.261Z,-1.50
2023-02-28T01:18:54.711Z,-1.50
2023-02-28T01:21:24.593Z,-1.30
2023-02-28T01:23:58.666Z,-1.30
2023-02-28T01:26:27.816Z,-1.20
2023-02-28T01:28:59.229Z,-1.10
2023-02-28T01:31:28.753Z,-0.90
2023-02-28T01:33:57.743Z,-0.90
2023-02-28T01:36:30.346Z,-0.80
2023-02-28T01:39:00.906Z,-0.70
2023-02-28T01:41:33.455Z,-0.60
2023-02-28T01:44:06.706Z,-0.50
2023-02-28T01:46:40.433Z,-0.40
2023-02-28T01:49:13.656Z,-0.40
2023-02-28T01:51:47.381Z,-0.30
2023-02-28T01:54:20.236Z,-0.30
2023-02-28T01:56:54.239Z,-0.20
2023-02-28T01:59:28.080Z,-0.20
2023-02-28T02:01:57.693Z,-0.20
2023-02-28T02:04:29.589Z,-0.10
2023-02-28T02:06:59.752Z,-0.10
2023-02-28T02:09:29.606Z,-0.10
2023-02-28T02:11:58.786Z,0.00
2023-02-28T02:14:43.066Z,-0.10
2023-02-28T02:17:22.557Z,0.00
2023-02-28T02:20:40.164Z,0.00
2023-02-28T02:23:33.621Z,0.00
2023-02-28T02:26:24.012Z,0.00
2023-02-28T02:29:08.269Z,0.00
2023-02-28T02:32:07.200Z,0.00
2023-02-28T02:34:47.177Z,0.00
2023-02-28T02:37:32.423Z,0.00
2023-02-28T02:40:11.613Z,-0.10
2023-02-28T02:42:47.029Z,-0.10
2023-02-28T02:45:23.734Z,-0.10
2023-02-28T02:47:53.817Z,-0.10
2023-02-28T02:50:32.836Z,-0.10
2023-02-28T02:53:05.732Z,-0.10
2023-02-28T02:55:39.992Z,-0.10
2023-02-28T02:58:11.560Z,-0.20
2023-02-28T03:00:44.429Z,-0.20
2023-02-28T03:03:14.611Z,-0.20
2023-02-28T03:05:48.654Z,-0.20
2023-02-28T03:08:18.339Z,-0.20
2023-02-28T03:10:50.308Z,-0.20
2023-02-28T03:13:55.619Z,-0.20
2023-02-28T03:17:05.138Z,-0.20
2023-02-28T03:19:47.501Z,-0.20
2023-02-28T03:22:40.211Z,-0.30
2023-02-28T03:25:14.786Z,-0.20
2023-02-28T03:27:49.572Z,-0.30
2023-02-28T03:30:25.120Z,-0.30
2023-02-28T03:32:59.281Z,-0.30
2023-02-28T03:35:32.972Z,-0.20
2023-02-28T03:38:07.543Z,-0.20
2023-02-28T03:40:40.087Z,-0.20
2023-02-28T03:43:15.185Z,-0.20
2023-02-28T03:45:45.632Z,-0.30
2023-02-28T03:48:17.962Z,-0.30
2023-02-28T03:50:49.723Z,-0.40
2023-02-28T03:53:24.720Z,-0.50
2023-02-28T03:55:58.489Z,-0.50
2023-02-28T03:58:32.259Z,-0.60
2023-02-28T04:01:09.014Z,-0.70
2023-02-28T04:03:38.617Z,-0.80
2023-02-28T04:06:10.371Z,-0.90
2023-02-28T04:08:40.455Z,-1.00
2023-02-28T04:11:20.681Z,-1.10
2023-02-28T04:13:49.313Z,-1.10
2023-02-28T04:16:33.519Z,-1.20
2023-02-28T04:19:04.575Z,-1.30
2023-02-28T04:21:34.243Z,-1.40
2023-02-28T04:24:04.209Z,-1.40
2023-02-28T04:26:32.940Z,-1.40
2023-02-28T04:29:01.996Z,-1.40
2023-02-28T04:31:30.817Z,-1.50
2023-02-28T04:33:59.510Z,-1.50
2023-02-28T04:36:28.036Z,-1.50
2023-02-28T04:38:56.812Z,-1.60
2023-02-28T04:41:27.303Z,-1.60
2023-02-28T04:43:56.942Z,-1.60
2023-02-28T04:46:25.752Z,-1.70
2023-02-28T04:48:54.386Z,-1.70
2023-02-28T04:51:22.863Z,-1.70
2023-02-28T04:53:51.254Z,-1.70
2023-02-28T04:56:20.467Z,-1.70
2023-02-28T04:58:50.303Z,-1.80
2023-02-28T05:01:21.845Z,-1.80
2023-02-28T05:03:51.272Z,-1.80
2023-02-28T05:06:21.270Z,-1.90
2023-02-28T05:08:49.957Z,-1.90
2023-02-28T05:11:21.845Z,-1.90
2023-02-28T05:13:52.707Z,-1.90
2023-02-28T05:16:21.787Z,-1.90
2023-02-28T05:18:50.298Z,-1.90
2023-02-28T05:21:27.243Z,-1.80
2023-02-28T05:23:56.217Z,-1.80
2023-02-28T05:26:24.510Z,-1.70
2023-02-28T05:28:54.296Z,-1.70
2023-02-28T05:31:23.423Z,-1.70
2023-02-28T05:33:52.418Z,-1.60
2023-02-28T05:36:21.320Z,-1.60
2023-02-28T05:38:50.210Z,-1.50
2023-02-28T05:41:20.298Z,-1.50
2023-02-28T05:43:49.256Z,-1.50
2023-02-28T05:46:19.019Z,-1.40
2023-02-28T05:48:50.265Z,-1.40
2023-02-28T05:51:19.324Z,-1.40
2023-02-28T05:53:50.273Z,-1.30
2023-02-28T05:56:18.537Z,-1.30
2023-02-28T05:58:47.289Z,-1.20
2023-02-28T06:01:26.306Z,-1.20
2023-02-28T06:03:54.622Z,-1.20
2023-02-28T06:06:23.218Z,-1.10
2023-02-28T06:08:51.412Z,-1.10
2023-02-28T06:11:20.927Z,-1.10
2023-02-28T06:13:49.995Z,-1.00
2023-02-28T06:16:18.703Z,-1.00
2023-02-28T06:18:51.841Z,-1.00
2023-02-28T06:21:22.340Z,-0.90
2023-02-28T06:23:50.784Z,-0.90
2023-02-28T06:26:19.243Z,-0.80
2023-02-28T06:28:47.883Z,-0.80
2023-02-28T06:31:20.066Z,-0.70
2023-02-28T06:33:49.864Z,-0.70
2023-02-28T06:36:21.041Z,-0.70
2023-02-28T06:38:55.514Z,-0.60
2023-02-28T06:41:25.251Z,-0.60
2023-02-28T06:43:54.385Z,-0.60
2023-02-28T06:46:23.250Z,-0.50
2023-02-28T06:48:51.617Z,-0.50
2023-02-28T06:51:23.305Z,-0.40
2023-02-28T06:53:52.017Z,-0.40
2023-02-28T06:56:21.872Z,-0.40
2023-02-28T06:58:51.344Z,-0.40
2023-02-28T07:01:20.988Z,-0.30
2023-02-28T07:03:53.349Z,-0.30
2023-02-28T07:06:24.591Z,-0.30
2023-02-28T07:08:54.022Z,-0.20
2023-02-28T07:11:40.162Z,-0.20
2023-02-28T07:14:08.643Z,-0.20
2023-02-28T07:16:38.603Z,-0.10
2023-02-28T07:19:06.823Z,-0.10
2023-02-28T07:21:35.223Z,0.00
2023-02-28T07:24:03.448Z,0.10
2023-02-28T07:26:31.609Z,0.20
2023-02-28T07:29:01.420Z,0.20
2023-02-28T07:31:30.056Z,0.30
2023-02-28T07:33:58.571Z,0.30
2023-02-28T07:36:26.918Z,0.40
2023-02-28T07:38:55.219Z,0.40
2023-02-28T07:41:25.779Z,0.50
2023-02-28T07:43:56.582Z,0.50
2023-02-28T07:46:28.957Z,0.60
2023-02-28T07:49:00.558Z,0.60
2023-02-28T07:51:29.644Z,0.60
2023-02-28T07:53:58.510Z,0.70
2023-02-28T07:56:29.385Z,0.70
2023-02-28T07:58:58.284Z,0.70
2023-02-28T08:01:28.739Z,0.70
2023-02-28T08:03:58.101Z,0.80
2023-02-28T08:06:28.477Z,0.80
2023-02-28T08:08:58.067Z,0.70
2023-02-28T08:11:26.703Z,0.80
2023-02-28T08:13:56.500Z,0.80
2023-02-28T08:16:25.014Z,0.90
2023-02-28T08:18:55.382Z,0.90
2023-02-28T08:21:24.294Z,1.00
2023-02-28T08:23:53.873Z,1.10
2023-02-28T08:26:23.339Z,1.20
2023-02-28T08:28:52.119Z,1.20
2023-02-28T08:31:20.992Z,1.30
2023-02-28T08:33:52.103Z,1.40
2023-02-28T08:36:25.791Z,1.50
2023-02-28T08:38:58.495Z,1.60
2023-02-28T08:41:29.697Z,1.60
2023-02-28T08:43:58.501Z,1.70
2023-02-28T08:46:27.526Z,1.70
2023-02-28T08:49:00.383Z,1.70
2023-02-28T08:51:33.446Z,1.80
2023-02-28T08:54:02.759Z,1.80
2023-02-28T08:56:31.767Z,1.80
2023-02-28T08:59:00.282Z,1.80
2023-02-28T09:01:30.786Z,1.80
2023-02-28T09:04:07.866Z,1.80
2023-02-28T09:06:38.003Z,1.90
2023-02-28T09:09:08.311Z,1.90
2023-02-28T09:11:37.349Z,1.90
2023-02-28T09:14:08.384Z,1.90
2023-02-28T09:16:37.453Z,1.90
2023-02-28T09:19:07.268Z,1.90
2023-02-28T09:21:38.196Z,2.00
2023-02-28T09:24:07.328Z,2.00
2023-02-28T09:26:42.941Z,2.00
2023-02-28T09:29:17.730Z,2.00
2023-02-28T09:31:46.268Z,2.00
2023-02-28T09:34:14.680Z,2.10
2023-02-28T09:36:46.237Z,2.10
2023-02-28T09:39:18.178Z,2.20
2023-02-28T09:41:52.442Z,2.20
2023-02-28T09:44:30.321Z,2.20
2023-02-28T09:47:03.339Z,2.20
2023-02-28T09:49:42.448Z,2.30
2023-02-28T09:52:17.630Z,2.30
2023-02-28T09:54:45.863Z,2.30
2023-02-28T09:57:21.238Z,2.40
2023-02-28T10:00:08.228Z,2.40
2023-02-28T10:03:12.282Z,2.50
2023-02-28T10:05:45.392Z,2.60
2023-02-28T10:08:19.184Z,2.60
2023-02-28T10:10:51.136Z,2.70
2023-02-28T10:13:26.163Z,2.80
2023-02-28T10:15:58.935Z,2.80
2023-02-28T10:18:32.712Z,2.80
2023-02-28T10:21:01.736Z,2.90
2023-02-28T10:23:36.166Z,2.90
2023-02-28T10:26:14.613Z,2.90
2023-02-28T10:28:42.936Z,2.90
2023-02-28T10:31:15.273Z,3.00
2023-02-28T10:33:43.559Z,3.10
2023-02-28T10:36:17.697Z,3.10
2023-02-28T10:38:48.696Z,3.10
2023-02-28T10:41:18.854Z,3.20
2023-02-28T10:43:47.445Z,3.20
2023-02-28T10:46:26.477Z,3.20
2023-02-28T10:49:07.732Z,3.30
2023-02-28T10:51:44.257Z,3.40
2023-02-28T10:54:24.435Z,3.40
2023-02-28T10:57:19.843Z,3.50
2023-02-28T10:59:52.314Z,3.60
2023-02-28T11:02:36.518Z,3.70
2023-02-28T11:05:24.278Z,3.70
2023-02-28T11:07:55.080Z,3.70
2023-02-28T11:10:29.957Z,3.70
2023-02-28T11:13:01.343Z,3.80
2023-02-28T11:15:31.906Z,3.80
2023-02-28T11:18:02.365Z,3.90
2023-02-28T11:20:34.324Z,4.00
2023-02-28T11:23:05.764Z,4.10
2023-02-28T11:25:39.333Z,4.20
2023-02-28T11:28:25.809Z,4.40
2023-02-28T11:31:04.882Z,4.50
2023-02-28T11:33:41.979Z,4.50
2023-02-28T11:36:15.103Z,4.50
2023-02-28T11:38:44.092Z,4.60
2023-02-28T11:41:34.977Z,4.70
2023-02-28T11:44:28.228Z,4.70
2023-02-28T11:47:01.736Z,4.80
2023-02-28T11:49:37.042Z,4.80
2023-02-28T11:52:16.859Z,4.80
2023-02-28T11:55:01.208Z,4.80
2023-02-28T11:57:46.945Z,4.80
2023-02-28T12:00:29.859Z,4.90
2023-02-28T12:03:08.882Z,5.00
2023-02-28T12:05:46.968Z,5.10
2023-02-28T12:08:32.850Z,5.20
2023-02-28T12:11:12.281Z,5.30
2023-02-28T12:13:50.569Z,5.40
2023-02-28T12:16:41.073Z,5.50
2023-02-28T12:19:20.330Z,5.60
2023-02-28T12:22:12.467Z,5.70
2023-02-28T12:25:17.322Z,5.70
2023-02-28T12:27:48.198Z,5.90
2023-02-28T12:30:24.298Z,6.00
2023-02-28T12:32:57.247Z,6.20
2023-02-28T12:35:32.317Z,6.20
2023-02-28T12:38:06.297Z,6.20
2023-02-28T12:40:47.082Z,6.20
2023-02-28T12:43:18.618Z,6.20
2023-02-28T12:45:52.587Z,6.20
2023-02-28T12:48:26.388Z,6.30
2023-02-28T12:50:55.343Z,6.40
2023-02-28T12:53:30.054Z,6.50
2023-02-28T12:56:09.806Z,6.60
2023-02-28T12:58:42.737Z,6.70
2023-02-28T13:02:01.371Z,6.80
2023-02-28T13:05:00.111Z,7.00
2023-02-28T13:07:56.818Z,7.30
2023-02-28T13:10:26.182Z,7.60
2023-02-28T13:13:08.061Z,7.80
2023-02-28T13:16:14.934Z,8.10
2023-02-28T13:19:24.156Z,8.60
2023-02-28T13:21:56.212Z,9.60
2023-02-28T13:24:53.932Z,10.10
2023-02-28T13:27:40.213Z,10.90
2023-02-28T13:30:45.714Z,11.80
2023-02-28T13:33:25.666Z,12.30
2023-02-28T13:36:24.763Z,12.50
2023-02-28T13:38:54.593Z,12.30
2023-02-28T13:41:44.373Z,12.00
2023-02-28T13:44:14.437Z,11.60
2023-02-28T13:47:19.450Z,11.50
2023-02-28T13:49:48.162Z,11.90
2023-02-28T13:52:22.828Z,12.90
2023-02-28T13:55:24.852Z,14.10
2023-02-28T13:58:13.809Z,15.50
2023-02-28T14:01:07.026Z,16.80
2023-02-28T14:04:05.802Z,17.90
2023-02-28T14:06:36.086Z,18.90
2023-02-28T14:09:20.966Z,19.90
2023-02-28T14:11:49.854Z,20.50
2023-02-28T14:14:52.069Z,20.40
2023-02-28T14:17:20.819Z,20.30
2023-02-28T14:19:51.192Z,20.30
2023-02-28T14:22:40.803Z,20.20
2023-02-28T14:25:25.461Z,20.00
2023-02-28T14:28:06.473Z,20.10
2023-02-28T14:31:02.305Z,20.30
2023-02-28T14:33:50.793Z,20.60
2023-02-28T14:36:23.576Z,21.00
2023-02-28T14:38:55.083Z,21.40
2023-02-28T14:41:30.630Z,21.90
2023-02-28T14:44:00.742Z,22.30
2023-02-28T14:46:37.113Z,22.50
2023-02-28T14:49:08.081Z,22.60
2023-02-28T14:51:36.858Z,22.50
2023-02-28T14:54:06.872Z,22.10
2023-02-28T14:56:38.922Z,21.60
2023-02-28T14:59:26.584Z,21.30
2023-02-28T15:02:10.222Z,21.20
2023-02-28T15:04:38.745Z,21.20
2023-02-28T15:07:10.727Z,21.20
2023-02-28T15:09:39.028Z,21.10
2023-02-28T15:12:09.319Z,21.10
2023-02-28T15:14:40.788Z,21.20
2023-02-28T15:17:14.498Z,21.30
2023-02-28T15:19:53.582Z,21.20
2023-02-28T15:22:30.264Z,21.10
2023-02-28T15:25:02.932Z,21.20
2023-02-28T15:27:35.149Z,21.30
2023-02-28T15:30:08.631Z,21.40
2023-02-28T15:32:40.612Z,21.30
2023-02-28T15:35:22.584Z,21.10
2023-02-28T15:37:56.151Z,20.90
2023-02-28T15:40:28.273Z,20.70
2023-02-28T15:43:06.738Z,20.60
2023-02-28T15:45:42.095Z,20.30
2023-02-28T15:48:22.069Z,19.90
2023-02-28T15:50:53.436Z,19.60
2023-02-28T15:53:26.236Z,19.40
2023-02-28T15:56:01.066Z,19.20
2023-02-28T15:58:44.086Z,19.00
2023-02-28T16:01:27.560Z,18.90
2023-02-28T16:04:02.026Z,18.60
2023-02-28T16:06:37.504Z,18.20
2023-02-28T16:09:08.896Z,18.00
2023-02-28T16:11:42.135Z,17.80
2023-02-28T16:14:18.746Z,17.60
2023-02-28T16:16:48.740Z,17.30
2023-02-28T16:19:17.815Z,16.90
2023-02-28T16:21:46.518Z,16.50
2023-02-28T16:24:17.986Z,16.00
2023-02-28T16:26:50.247Z,15.50
2023-02-28T16:29:25.819Z,14.70
2023-02-28T16:31:54.714Z,13.60
2023-02-28T16:34:23.585Z,12.50
2023-02-28T16:36:52.880Z,11.50
2023-02-28T16:39:22.186Z,10.70
2023-02-28T16:41:52.573Z,9.90
2023-02-28T16:44:29.998Z,9.20
2023-02-28T16:46:58.793Z,8.70
2023-02-28T16:49:27.941Z,8.30
2023-02-28T16:51:56.490Z,7.90
2023-02-28T16:54:25.028Z,7.50
2023-02-28T16:56:53.612Z,7.10
2023-02-28T16:59:25.250Z,6.80
2023-02-28T17:01:54.361Z,6.50
2023-02-28T17:04:23.006Z,6.20
2023-02-28T17:06:51.926Z,5.90
2023-02-28T17:09:26.219Z,5.70
2023-02-28T17:12:00.435Z,5.50
2023-02-28T17:14:30.180Z,5.20
2023-02-28T17:17:01.487Z,5.00
2023-02-28T17:19:30.052Z,4.90
2023-02-28T17:21:58.510Z,4.70
2023-02-28T17:24:31.305Z,4.50
2023-02-28T17:27:00.215Z,4.40
2023-02-28T17:29:30.165Z,4.20
2023-02-28T17:32:00.792Z,4.10
2023-02-28T17:34:31.557Z,4.00
2023-02-28T17:36:59.834Z,3.80
2023-02-28T17:39:28.470Z,3.70
2023-02-28T17:41:57.980Z,3.60
2023-02-28T17:44:29.806Z,3.50
2023-02-28T17:46:58.134Z,3.50
2023-02-28T17:49:26.446Z,3.30
2023-02-28T17:51:54.714Z,3.30
2023-02-28T17:54:22.965Z,3.20
2023-02-28T17:56:51.304Z,3.10
2023-02-28T17:59:19.783Z,3.00
2023-02-28T18:01:49.381Z,3.00
2023-02-28T18:04:17.703Z,2.90
2023-02-28T18:06:51.076Z,2.90
2023-02-28T18:09:22.785Z,2.80
2023-02-28T18:11:51.621Z,2.80
2023-02-28T18:14:21.751Z,2.70
2023-02-28T18:16:52.292Z,2.70
2023-02-28T18:19:21.207Z,2.70
2023-02-28T18:21:51.743Z,2.60
2023-02-28T18:24:21.419Z,2.60
2023-02-28T18:26:49.739Z,2.50
2023-02-28T18:29:20.167Z,2.50
2023-02-28T18:31:48.919Z,2.40
2023-02-28T18:34:18.756Z,2.40
2023-02-28T18:36:48.398Z,2.40
2023-02-28T18:39:17.548Z,2.40
2023-02-28T18:41:45.986Z,2.30
2023-02-28T18:44:20.186Z,2.30
2023-02-28T18:46:49.263Z,2.30
2023-02-28T18:49:20.041Z,2.30
2023-02-28T18:51:48.765Z,2.20
2023-02-28T18:54:17.779Z,2.20
2023-02-28T18:56:46.543Z,2.20
2023-02-28T18:59:15.133Z,2.20
2023-02-28T19:01:46.399Z,2.10
2023-02-28T19:04:16.127Z,2.10
2023-02-28T19:06:46.794Z,2.00
2023-02-28T19:09:15.256Z,1.90
2023-02-28T19:11:43.743Z,1.90
2023-02-28T19:14:12.167Z,1.90
2023-02-28T19:16:40.497Z,1.80
2023-02-28T19:19:09.032Z,1.80
2023-02-28T19:21:37.496Z,1.80
2023-02-28T19:24:08.032Z,1.80
2023-02-28T19:26:36.686Z,1.80
2023-02-28T19:29:06.328Z,1.80
2023-02-28T19:31:35.174Z,1.80
2023-02-28T19:34:03.703Z,1.80
2023-02-28T19:36:32.320Z,1.80
2023-02-28T19:39:00.763Z,1.80
2023-02-28T19:41:30.915Z,1.80
2023-02-28T19:43:59.340Z,1.80
2023-02-28T19:46:29.097Z,1.70
2023-02-28T19:48:57.539Z,1.60
2023-02-28T19:51:26.248Z,1.60
2023-02-28T19:53:54.820Z,1.50
2023-02-28T19:56:23.371Z,1.40
2023-02-28T19:58:53.060Z,1.40
2023-02-28T20:01:22.651Z,1.30
2023-02-28T20:03:52.615Z,1.20
2023-02-28T20:06:21.482Z,1.20
2023-02-28T20:08:50.063Z,1.10
2023-02-28T20:11:18.871Z,1.10
2023-02-28T20:13:47.336Z,1.10
2023-02-28T20:16:17.190Z,1.00
2023-02-28T20:18:46.136Z,1.00
2023-02-28T20:21:16.508Z,0.90
2023-02-28T20:23:46.413Z,0.90
2023-02-28T20:26:14.732Z,0.90
2023-02-28T20:28:44.307Z,0.80
2023-02-28T20:31:13.844Z,0.80
2023-02-28T20:33:46.705Z,0.80
2023-02-28T20:36:16.124Z,0.80
2023-02-28T20:38:45.187Z,0.70
2023-02-28T20:41:14.329Z,0.70
2023-02-28T20:43:42.987Z,0.60
2023-02-28T20:46:11.837Z,0.60
2023-02-28T20:48:41.424Z,0.50
2023-02-28T20:51:12.369Z,0.50
2023-02-28T20:53:41.469Z,0.40
2023-02-28T20:56:13.801Z,0.40
2023-02-28T20:58:42.153Z,0.40
2023-02-28T21:01:15.984Z,0.30
2023-02-28T21:03:44.840Z,0.30
2023-02-28T21:06:15.433Z,0.20
2023-02-28T21:08:43.973Z,0.20
2023-02-28T21:11:18.946Z,0.20
2023-02-28T21:13:47.993Z,0.20
2023-02-28T21:16:19.235Z,0.20
2023-02-28T21:18:47.492Z,0.20
2023-02-28T21:21:19.712Z,0.10
2023-02-28T21:23:48.971Z,0.10
2023-02-28T21:26:19.871Z,0.10
2023-02-28T21:28:51.287Z,0.10
2023-02-28T21:31:21.963Z,0.10
2023-02-28T21:33:50.868Z,0.00
2023-02-28T21:36:23.009Z,0.00
2023-02-28T21:38:56.775Z,0.00
2023-02-28T21:41:26.130Z,0.00
2023-02-28T21:43:54.557Z,0.00
2023-02-28T21:46:24.347Z,0.00
2023-02-28T21:48:53.215Z,0.10
2023-02-28T21:51:24.825Z,0.00
2023-02-28T21:53:53.444Z,0.00
2023-02-28T21:56:23.462Z,0.00
2023-02-28T21:59:00.114Z,-0.10
2023-02-28T22:01:31.053Z,-0.20
2023-02-28T22:04:00.472Z,-0.20
2023-02-28T22:06:32.506Z,-0.30
2023-02-28T22:09:03.794Z,-0.30
2023-02-28T22:11:31.993Z,-0.30
2023-02-28T22:14:00.345Z,-0.30
2023-02-28T22:16:33.112Z,-0.30
2023-02-28T22:19:07.781Z,-0.40
2023-02-28T22:21:39.656Z,-0.40
2023-02-28T22:24:10.344Z,-0.40
2023-02-28T22:26:39.285Z,-0.40
2023-02-28T22:29:07.749Z,-0.30
2023-02-28T22:31:37.111Z,-0.40
2023-02-28T22:34:07.587Z,-0.40
2023-02-28T22:36:37.328Z,-0.40
2023-02-28T22:39:06.596Z,-0.40
2023-02-28T22:41:35.283Z,-0.50
2023-02-28T22:44:05.610Z,-0.50
2023-02-28T22:46:35.639Z,-0.50
2023-02-28T22:49:08.248Z,-0.60
2023-02-28T22:51:37.855Z,-0.60
2023-02-28T22:54:06.330Z,-0.70
2023-02-28T22:56:34.759Z,-0.70
2023-02-28T22:59:03.495Z,-0.70
2023-02-28T23:01:33.892Z,-0.70
2023-02-28T23:04:03.068Z,-0.70
2023-02-28T23:06:33.604Z,-0.70
2023-02-28T23:09:06.953Z,-0.70
2023-02-28T23:11:38.432Z,-0.70
2023-02-28T23:14:07.397Z,-0.70
2023-02-28T23:16:38.945Z,-0.80
2023-02-28T23:19:09.644Z,-0.90
2023-02-28T23:21:38.614Z,-0.90
2023-02-28T23:24:10.443Z,-0.90
2023-02-28T23:26:40.081Z,-0.90
2023-02-28T23:29:08.906Z,-0.90
2023-02-28T23:31:37.691Z,-0.90
2023-02-28T23:34:06.065Z,-1.00
2023-02-28T23:36:34.725Z,-1.00
2023-02-28T23:39:03.137Z,-1.00
2023-02-28T23:41:32.804Z,-1.00
2023-02-28T23:44:01.197Z,-1.10
2023-02-28T23:46:29.876Z,-1.20
2023-02-28T23:48:59.900Z,-1.20
2023-02-28T23:51:28.141Z,-1.30
2023-02-28T23:53:56.461Z,-1.30
2023-02-28T23:56:25.774Z,-1.30
2023-02-28T23:58:56.362Z,-1.30
